Time;durP1;ratioP1;P1;durP2;ratioP2;P2;SDS_P1;SDS_P2;PMS_P1;PMS_P2;Temp;Humidity;BMP_temperature;BMP_pressure;BME280_temperature;BME280_humidity;BME280_pressure;Samples;Min_cycle;Max_cycle;Signal;HPM_P1;HPM_P2
2022/09/23 00:03:11;;;;;;;5.25;2.38;;;;;;;10.03;63.36;100764.03;10331010;28;19929;-80
2022/09/23 00:08:14;;;;;;;5.22;2.45;;;;;;;9.96;63.37;100758.28;10336600;28;20523;-79
2022/09/23 00:13:18;;;;;;;;;;;;;;;9.89;63.49;100757.00;10338820;28;20042;-79
2022/09/23 00:18:21;;;;;;;4.60;2.75;;;;;;;9.87;63.63;100749.06;10325343;28;19930;-79
2022/09/23 00:23:24;;;;;;;;;;;;;;;9.83;63.60;100747.53;10327109;28;20085;-80
2022/09/23 00:28:28;;;;;;;7.55;2.60;;;;;;;9.78;63.66;100748.81;10332340;28;19946;-80
2022/09/23 00:33:31;;;;;;;5.28;2.30;;;;;;;9.74;64.03;100748.19;10334034;28;20046;-80
2022/09/23 00:38:34;;;;;;;;;;;;;;;9.68;64.03;100741.44;10332033;28;20066;-78
2022/09/23 00:43:40;;;;;;;3.92;2.58;;;;;;;9.69;63.93;100742.31;10339342;28;19933;-79
2022/09/23 00:48:44;;;;;;;5.90;2.53;;;;;;;9.67;63.90;100741.53;10336303;28;20046;-80
2022/09/23 00:53:50;;;;;;;3.97;2.20;;;;;;;9.58;64.24;100734.16;10336618;28;20141;-79
2022/09/23 00:58:54;;;;;;;2.38;2.15;;;;;;;9.55;64.29;100729.03;10331939;28;20496;-80
2022/09/23 01:03:58;;;;;;;3.47;2.30;;;;;;;9.49;64.26;100724.97;10332018;28;20051;-81
2022/09/23 01:09:01;;;;;;;6.47;2.10;;;;;;;9.42;64.50;100715.63;10323358;28;20050;-79
2022/09/23 01:14:20;;;;;;;3.08;2.20;;;;;;;9.39;64.77;100721.22;10345722;28;20043;-80
2022/09/23 01:19:50;;;;;;;4.05;2.28;;;;;;;9.37;64.75;100713.25;10335239;28;20046;-80
2022/09/23 01:25:13;;;;;;;3.60;2.20;;;;;;;9.34;64.64;100709.94;10327831;28;20465;-79
2022/09/23 01:30:38;;;;;;;3.00;2.30;;;;;;;9.31;64.83;100710.16;10332989;28;20484;-78
2022/09/23 01:35:54;;;;;;;2.70;2.40;;;;;;;9.31;64.73;100702.13;10337850;28;20069;-80
2022/09/23 01:41:02;;;;;;;4.68;2.20;;;;;;;9.22;64.90;100695.59;10325500;28;20051;-79
2022/09/23 01:46:13;;;;;;;3.45;2.35;;;;;;;9.23;64.90;100694.63;10329758;28;20066;-80
2022/09/23 01:51:23;;;;;;;3.70;2.38;;;;;;;9.21;65.00;100692.03;10338127;28;20050;-79
2022/09/23 01:56:29;;;;;;;3.67;2.33;;;;;;;9.12;65.05;100684.66;10336402;28;20050;-79
2022/09/23 02:01:38;;;;;;;3.78;2.67;;;;;;;9.02;65.46;100683.56;10339584;28;20046;-80
2022/09/23 02:06:49;;;;;;;4.13;2.50;;;;;;;9.00;65.61;100685.53;10334055;28;20126;-79
2022/09/23 02:11:59;;;;;;;6.40;2.45;;;;;;;8.99;65.65;100686.47;10351201;28;20070;-80
2022/09/23 02:17:08;;;;;;;4.18;2.92;;;;;;;9.01;65.57;100679.19;10336988;28;20050;-80
2022/09/23 02:22:16;;;;;;;4.75;2.78;;;;;;;9.02;65.50;100684.47;10343185;28;20043;-78
2022/09/23 02:27:25;;;;;;;5.05;2.45;;;;;;;8.97;65.58;100673.19;10338085;28;20439;-79
2022/09/23 02:32:34;;;;;;;6.60;2.65;;;;;;;8.86;65.64;100674.88;10345382;28;20039;-78
2022/09/23 02:37:44;;;;;;;4.15;2.08;;;;;;;8.93;65.73;100670.81;10345637;28;20051;-79
2022/09/23 02:42:54;;;;;;;4.10;2.40;;;;;;;8.96;65.60;100668.78;10338479;28;20058;-78
2022/09/23 02:48:04;;;;;;;2.63;2.20;;;;;;;8.98;65.42;100669.53;10340929;28;20042;-78
2022/09/23 02:53:08;;;;;;;2.97;2.38;;;;;;;8.92;65.55;100667.28;10346939;28;20062;-80
2022/09/23 02:58:13;;;;;;;3.53;2.70;;;;;;;8.96;65.39;100671.47;10342497;28;20047;-81
2022/09/23 03:03:29;;;;;;;3.80;2.58;;;;;;;8.91;65.73;100667.38;10355040;28;20050;-80
2022/09/23 03:08:42;;;;;;;4.85;2.33;;;;;;;8.88;65.89;100662.25;10350948;28;20058;-81
2022/09/23 03:13:55;;;;;;;6.47;2.50;;;;;;;8.89;65.67;100656.78;10343180;28;20050;-80
2022/09/23 03:19:08;;;;;;;3.00;2.30;;;;;;;8.80;65.98;100654.72;10338683;28;20058;-79
2022/09/23 03:24:14;;;;;;;6.72;2.70;;;;;;;8.80;66.10;100649.38;10335539;28;20037;-80
2022/09/23 03:29:19;;;;;;;3.00;2.53;;;;;;;8.71;66.41;100647.34;10331154;28;20046;-81
2022/09/23 03:34:26;;;;;;;4.65;2.63;;;;;;;8.75;66.28;100646.16;10351408;28;20042;-80
2022/09/23 03:39:36;;;;;;;3.15;2.13;;;;;;;8.76;66.31;100645.22;10369024;28;20038;-78
2022/09/23 03:44:43;;;;;;;3.22;2.83;;;;;;;8.75;66.34;100638.13;10360165;28;20199;-78
2022/09/23 03:49:48;;;;;;;3.53;2.53;;;;;;;8.70;66.47;100625.06;10348097;28;20058;-79
2022/09/23 03:54:52;;;;;;;3.58;2.30;;;;;;;8.67;66.56;100627.97;10343559;28;20070;-79
2022/09/23 03:59:55;;;;;;;6.82;2.63;;;;;;;8.68;66.62;100618.97;10355141;28;20041;-78
2022/09/23 04:04:58;;;;;;;4.45;2.75;;;;;;;8.69;66.41;100617.13;10374740;28;20041;-79
2022/09/23 04:10:02;;;;;;;;;;;;;;;8.60;66.80;100600.72;10358628;28;20055;-79
2022/09/23 04:15:06;;;;;;;3.72;2.30;;;;;;;8.54;66.90;100601.16;10345738;28;19922;-79
2022/09/23 04:20:09;;;;;;;4.28;2.40;;;;;;;8.50;67.09;100597.00;10323619;28;20051;-80
2022/09/23 04:25:14;;;;;;;3.72;2.33;;;;;;;8.60;66.65;100595.38;10348252;28;20049;-79
2022/09/23 04:30:17;;;;;;;3.47;2.17;;;;;;;8.52;66.79;100586.16;10334286;28;20069;-80
2022/09/23 04:35:20;;;;;;;5.78;2.72;;;;;;;8.50;66.76;100588.97;10344480;28;20045;-79
2022/09/23 04:40:24;;;;;;;;;;;;;;;8.48;67.06;100590.03;10351057;28;20055;-79
2022/09/23 04:45:28;;;;;;;2.70;2.50;;;;;;;8.49;66.82;100584.56;10336712;28;19930;-80
2022/09/23 04:50:33;;;;;;;4.10;3.25;;;;;;;8.48;67.06;100579.34;10336540;28;20065;-80
2022/09/23 04:55:37;;;;;;;5.93;2.80;;;;;;;8.43;67.17;100593.00;10342125;28;20066;-79
2022/09/23 05:00:40;;;;;;;4.80;2.72;;;;;;;8.38;67.34;100584.41;10340376;28;20400;-79
2022/09/23 05:05:43;;;;;;;5.22;3.08;;;;;;;8.36;67.36;100578.31;10332728;28;20053;-78
2022/09/23 05:10:48;;;;;;;3.10;2.78;;;;;;;8.36;67.39;100583.66;10332640;28;20892;-79
2022/09/23 05:15:57;;;;;;;4.25;2.65;;;;;;;8.31;67.42;100578.63;10333242;28;20043;-79
2022/09/23 05:21:00;;;;;;;3.13;2.83;;;;;;;8.24;67.65;100577.31;10328837;28;20046;-79
2022/09/23 05:26:07;;;;;;;6.30;2.80;;;;;;;8.24;67.85;100587.19;10328904;28;20046;-78
2022/09/23 05:31:13;;;;;;;5.72;3.00;;;;;;;8.23;67.90;100577.41;10338558;23;20047;-78
2022/09/23 05:36:22;;;;;;;3.30;3.00;;;;;;;8.21;67.95;100587.41;10338076;28;20050;-79
2022/09/23 05:41:27;;;;;;;6.15;3.50;;;;;;;8.20;67.92;100578.53;10337690;28;20049;-79
2022/09/23 05:46:31;;;;;;;3.30;3.00;;;;;;;8.21;68.12;100579.38;10334252;28;20042;-79
2022/09/23 05:51:35;;;;;;;7.55;3.45;;;;;;;8.21;67.89;100582.91;10331559;28;20054;-79
2022/09/23 05:56:39;;;;;;;3.58;3.22;;;;;;;8.23;67.80;100585.44;10334807;28;20051;-78
2022/09/23 06:01:43;;;;;;;3.58;3.28;;;;;;;8.22;67.99;100565.88;10330615;28;20051;-79
2022/09/23 06:06:47;;;;;;;4.70;2.85;;;;;;;8.24;67.95;100560.41;10333297;28;20050;-79
2022/09/23 06:11:51;;;;;;;5.63;3.13;;;;;;;8.32;67.81;100558.06;10333054;28;20054;-78
2022/09/23 06:16:53;;;;;;;5.28;3.63;;;;;;;8.45;67.52;100563.41;10335960;28;20407;-78
2022/09/23 06:21:56;;;;;;;;;;;;;;;8.42;67.38;100559.16;10318817;28;20486;-79
2022/09/23 06:27:01;;;;;;;6.28;3.63;;;;;;;8.42;67.48;100558.28;10326678;28;19922;-79
2022/09/23 06:32:04;;;;;;;3.88;3.00;;;;;;;8.66;67.20;100561.09;10324336;28;20047;-79
2022/09/23 06:37:07;;;;;;;4.10;3.22;;;;;;;9.02;66.41;100573.72;10319950;28;20065;-78
2022/09/23 06:42:23;;;;;;;2.97;2.35;;;;;;;9.99;64.54;100574.69;10326719;28;20053;-80
2022/09/23 06:47:26;;;;;;;7.68;3.08;;;;;;;10.60;61.71;100580.72;10320517;28;20039;-79
2022/09/23 06:52:28;;;;;;;2.38;2.10;;;;;;;10.87;61.16;100577.69;10328563;28;20125;-78
2022/09/23 06:57:33;;;;;;;4.30;2.40;;;;;;;11.24;60.23;100583.72;10327410;28;20046;-77
2022/09/23 07:02:36;;;;;;;3.10;2.30;;;;;;;11.53;59.50;100574.25;10321086;28;20057;-78
2022/09/23 07:07:40;;;;;;;3.17;2.80;;;;;;;11.42;59.41;100572.44;10319014;28;20126;-79
2022/09/23 07:12:44;;;;;;;3.00;2.70;;;;;;;11.56;59.58;100571.28;10323245;28;20101;-77
2022/09/23 07:17:48;;;;;;;6.47;2.83;;;;;;;11.93;58.94;100564.56;10323643;28;20078;-78
2022/09/23 07:22:51;;;;;;;4.30;3.22;;;;;;;11.47;58.44;100573.75;10314774;28;20042;-77
2022/09/23 07:27:57;;;;;;;7.30;2.95;;;;;;;11.53;58.87;100571.56;10305861;28;20046;-78
2022/09/23 07:33:00;;;;;;;4.95;3.03;;;;;;;11.44;58.96;100575.84;10320986;28;20146;-79
2022/09/23 07:38:03;;;;;;;6.35;3.35;;;;;;;11.94;58.33;100573.50;10332885;28;20045;-79
2022/09/23 07:43:07;;;;;;;7.13;3.50;;;;;;;12.57;57.61;100570.88;10332739;28;20563;-79
2022/09/23 07:48:11;;;;;;;6.10;2.97;;;;;;;13.08;55.35;100567.25;10324554;28;20038;-78
2022/09/23 07:53:14;;;;;;;5.80;3.13;;;;;;;13.18;54.94;100567.31;10323423;28;20043;-78
2022/09/23 07:58:18;;;;;;;4.60;3.10;;;;;;;13.30;54.09;100568.91;10314765;28;20039;-78
2022/09/23 08:03:21;;;;;;;4.57;3.53;;;;;;;13.34;54.36;100566.78;10314799;28;20050;-80
2022/09/23 08:08:24;;;;;;;6.15;3.40;;;;;;;13.61;53.87;100558.09;10319287;28;20042;-78
2022/09/23 08:13:29;;;;;;;6.25;3.10;;;;;;;13.93;53.70;100558.69;10318342;28;20050;-79
2022/09/23 08:18:32;;;;;;;4.15;3.30;;;;;;;13.94;53.12;100554.13;10307488;28;20046;-79
2022/09/23 08:23:35;;;;;;;3.55;2.95;;;;;;;14.47;53.16;100559.06;10325889;28;20146;-77
2022/09/23 08:28:44;;;;;;;3.25;2.80;;;;;;;15.13;50.94;100555.41;10330720;28;20073;-78
2022/09/23 08:33:46;;;;;;;3.70;2.88;;;;;;;15.35;50.72;100548.78;10317370;28;20043;-77
2022/09/23 08:38:49;;;;;;;4.95;2.97;;;;;;;15.56;49.97;100550.38;10318456;28;20157;-78
2022/09/23 08:43:58;;;;;;;3.03;2.58;;;;;;;15.74;49.79;100550.38;10303590;28;20047;-79
2022/09/23 08:49:02;;;;;;;4.82;2.80;;;;;;;15.76;49.85;100551.94;10307725;28;20046;-78
2022/09/23 08:54:06;;;;;;;5.85;3.63;;;;;;;16.51;48.34;100538.88;10309049;28;20049;-78
2022/09/23 08:59:18;;;;;;;5.65;2.90;;;;;;;16.65;48.22;100542.88;10323283;28;20050;-79
2022/09/23 09:04:24;;;;;;;3.15;2.85;;;;;;;16.84;47.69;100540.91;10353167;28;20500;-79
2022/09/23 09:09:30;;;;;;;4.95;3.15;;;;;;;16.97;47.48;100547.59;10358434;28;20054;-79
2022/09/23 09:14:43;;;;;;;4.20;3.55;;;;;;;17.25;46.85;100544.69;10346787;28;20122;-78
2022/09/23 09:19:56;;;;;;;;;;;;;;;17.27;47.16;100537.25;10340220;28;20097;-79
2022/09/23 09:25:05;;;;;;;4.35;2.67;;;;;;;17.48;46.89;100534.94;10328758;28;19982;-79
2022/09/23 09:30:13;;;;;;;4.88;2.67;;;;;;;17.66;46.59;100525.78;10326983;28;20069;-78
2022/09/23 09:35:25;;;;;;;2.72;2.33;;;;;;;17.71;46.88;100523.44;10334292;28;20518;-79
2022/09/23 09:40:28;;;;;;;8.53;3.13;;;;;;;18.24;46.17;100516.69;10338491;28;20042;-78
2022/09/23 09:45:52;;;;;;;4.40;3.17;;;;;;;18.33;46.00;100512.09;10317766;28;20049;-77
2022/09/23 09:51:17;;;;;;;5.57;3.05;;;;;;;18.94;45.27;100504.31;10301667;28;20530;-79
2022/09/23 09:56:26;;;;;;;3.95;2.35;;;;;;;19.53;42.19;100492.91;10326835;28;20519;-78
2022/09/23 10:01:32;;;;;;;4.32;2.83;;;;;;;19.98;40.86;100491.28;10371489;28;20152;-78
2022/09/23 10:06:36;;;;;;;2.70;1.90;;;;;;;19.23;40.31;100490.91;10365728;28;20038;-78
2022/09/23 10:11:39;;;;;;;3.83;1.98;;;;;;;19.23;40.92;100479.16;10371858;28;20113;-79
2022/09/23 10:16:46;;;;;;;2.35;1.90;;;;;;;19.53;40.67;100479.31;10367854;28;20049;-78
2022/09/23 10:21:53;;;;;;;5.35;2.38;;;;;;;20.22;40.18;100473.84;10369813;28;20431;-80
2022/09/23 10:26:59;;;;;;;6.60;2.20;;;;;;;19.99;39.97;100479.31;10350382;28;20042;-78
2022/09/23 10:32:24;;;;;;;1.70;1.60;;;;;;;19.52;39.11;100466.72;10346757;28;20046;-78
2022/09/23 10:37:33;;;;;;;3.58;1.80;;;;;;;19.41;38.45;100465.25;10350096;28;20041;-77
2022/09/23 10:48:25;;;;;;;2.38;1.70;;;;;;;19.58;38.69;100464.16;10345433;28;20046;-77
2022/09/23 10:53:42;;;;;;;1.70;1.60;;;;;;;19.61;38.74;100462.94;10353747;28;20149;-77
2022/09/23 10:59:04;;;;;;;1.88;1.63;;;;;;;19.69;38.76;100462.88;10347178;28;20129;-76
2022/09/23 11:04:31;;;;;;;4.30;1.77;;;;;;;19.22;39.02;100453.78;10357675;28;20768;-76
2022/09/23 11:09:49;;;;;;;5.45;2.65;;;;;;;18.56;39.91;100455.94;10353691;28;20172;-76
2022/09/23 11:15:09;;;;;;;3.88;1.63;;;;;;;18.81;39.62;100453.16;10355539;28;20085;-77
2022/09/23 11:20:36;;;;;;;3.95;1.80;;;;;;;19.05;40.12;100441.31;10339097;28;20381;-76
2022/09/23 11:25:49;;;;;;;5.80;1.58;;;;;;;19.72;38.68;100437.13;10342479;28;20069;-76
2022/09/23 11:31:03;;;;;;;2.88;1.95;;;;;;;19.62;38.07;100430.06;10347397;28;20092;-76
2022/09/23 11:36:12;;;;;;;5.40;1.67;;;;;;;19.59;38.21;100419.53;10358983;28;20446;-76
2022/09/23 11:41:20;;;;;;;5.95;1.80;;;;;;;19.62;38.02;100408.25;10350288;28;20034;-76
2022/09/23 11:46:30;;;;;;;2.95;1.60;;;;;;;18.92;38.94;100405.66;10357725;28;20045;-76
2022/09/23 11:51:43;;;;;;;4.70;2.10;;;;;;;19.18;38.92;100405.34;10356664;28;20041;-76
2022/09/23 11:56:50;;;;;;;2.45;1.50;;;;;;;19.36;38.34;100403.19;10350367;28;20149;-76
2022/09/23 12:01:59;;;;;;;3.03;1.35;;;;;;;18.67;40.09;100411.19;10353562;28;20117;-77
2022/09/23 12:07:22;;;;;;;2.33;1.45;;;;;;;19.08;39.87;100399.28;10365290;28;20046;-78
2022/09/23 12:12:35;;;;;;;3.40;1.90;;;;;;;18.93;39.75;100404.63;10351001;28;20050;-77
2022/09/23 12:18:05;;;;;;;2.35;1.60;;;;;;;18.77;39.73;100400.09;10372432;28;20112;-77
2022/09/23 12:23:26;;;;;;;4.13;1.45;;;;;;;18.61;39.93;100392.84;10357764;28;20161;-77
2022/09/23 12:28:32;;;;;;;2.00;1.80;;;;;;;19.06;39.16;100382.25;10352840;28;20459;-76
2022/09/23 12:33:36;;;;;;;6.40;1.90;;;;;;;18.87;39.61;100373.53;10310471;28;20038;-78
2022/09/23 12:38:46;;;;;;;2.85;1.40;;;;;;;19.64;36.69;100376.25;10350917;28;20050;-75
2022/09/23 12:43:55;;;;;;;1.27;1.10;;;;;;;19.61;36.50;100379.34;10341733;28;20124;-76
2022/09/23 12:49:00;;;;;;;1.83;1.40;;;;;;;19.69;36.93;100375.66;10361782;28;20066;-77
2022/09/23 12:54:24;;;;;;;2.25;1.27;;;;;;;20.56;35.49;100359.56;10310410;28;20454;-77
2022/09/23 12:59:29;;;;;;;1.60;1.10;;;;;;;20.52;34.67;100361.00;10327775;28;20054;-77
2022/09/23 13:10:08;;;;;;;4.13;1.40;;;;;;;21.20;34.18;100355.28;10347556;28;20046;-77
2022/09/23 13:15:18;;;;;;;4.75;1.70;;;;;;;21.11;34.05;100370.09;10320087;28;20483;-76
2022/09/23 13:20:37;;;;;;;1.65;1.10;;;;;;;20.38;34.53;100363.72;10355059;28;20042;-76
2022/09/23 13:25:42;;;;;;;4.05;1.20;;;;;;;20.46;35.64;100352.72;10331467;28;20502;-77
2022/09/23 13:30:50;;;;;;;1.80;1.27;;;;;;;19.90;36.29;100337.66;10345751;28;20049;-77
2022/09/23 13:35:57;;;;;;;2.35;1.17;;;;;;;19.86;36.20;100340.94;10343182;28;20046;-77
2022/09/23 13:41:07;;;;;;;2.05;1.10;;;;;;;19.48;36.40;100323.75;10338694;28;20495;-76
2022/09/23 13:46:13;;;;;;;4.22;1.20;;;;;;;19.69;36.91;100332.06;10347978;28;20129;-76
2022/09/23 13:51:21;;;;;;;2.08;1.50;;;;;;;19.85;36.54;100331.91;10332052;28;20069;-76
2022/09/23 13:56:28;;;;;;;1.63;1.33;;;;;;;19.50;36.45;100324.38;10348577;28;20121;-77
2022/09/23 14:01:33;;;;;;;1.25;1.00;;;;;;;19.05;37.32;100326.97;10351710;28;20069;-76
2022/09/23 14:06:40;;;;;;;7.07;1.35;;;;;;;18.90;38.05;100328.81;10355748;28;20070;-76
2022/09/23 14:11:45;;;;;;;1.73;1.33;;;;;;;18.42;38.05;100331.56;10358115;28;20042;-76
2022/09/23 14:16:50;;;;;;;2.60;1.35;;;;;;;18.41;38.40;100307.28;10360652;28;20575;-76
2022/09/23 14:21:54;;;;;;;6.57;1.40;;;;;;;18.32;38.94;100310.03;10332902;28;20494;-76
2022/09/23 14:27:02;;;;;;;1.63;1.30;;;;;;;18.07;39.73;100301.13;10356654;28;20050;-77
2022/09/23 14:32:06;;;;;;;1.88;1.48;;;;;;;18.26;39.14;100297.13;10346264;28;20070;-77
2022/09/23 14:42:45;;;;;;;2.75;1.20;;;;;;;18.39;40.59;100285.69;10360411;28;20069;-77
2022/09/23 14:47:51;;;;;;;1.70;1.60;;;;;;;18.38;39.88;100288.59;10357938;28;20042;-77
2022/09/23 14:52:54;;;;;;;2.20;1.02;;;;;;;18.29;40.07;100288.66;10345081;28;20117;-76
2022/09/23 14:58:04;;;;;;;2.50;1.02;;;;;;;18.17;40.03;100292.75;10370028;28;20029;-77
2022/09/23 15:03:15;;;;;;;7.93;3.25;;;;;;;18.20;40.15;100286.13;10388707;28;20050;-80
2022/09/23 15:08:20;;;;;;;2.85;1.40;;;;;;;18.18;40.49;100280.84;10388000;28;20042;-79
2022/09/23 15:13:29;;;;;;;2.65;1.30;;;;;;;18.32;40.35;100271.09;10367247;28;20046;-79
2022/09/23 15:18:34;;;;;;;1.63;1.40;;;;;;;18.27;40.45;100271.66;10350330;28;20104;-79
2022/09/23 15:23:45;;;;;;;2.95;2.05;;;;;;;18.29;39.49;100261.47;10364422;28;20053;-80
2022/09/23 15:28:50;;;;;;;3.22;1.65;;;;;;;18.40;40.16;100262.91;10361562;28;20105;-79
2022/09/23 15:33:54;;;;;;;1.58;1.48;;;;;;;18.49;40.58;100258.28;10361033;28;20562;-79
2022/09/23 15:39:01;;;;;;;1.83;1.55;;;;;;;18.39;40.72;100250.34;10358996;28;20034;-79
2022/09/23 15:44:12;;;;;;;1.35;1.20;;;;;;;18.19;40.08;100258.09;10351168;28;20078;-78
2022/09/23 15:49:22;;;;;;;1.45;1.33;;;;;;;17.72;40.32;100263.50;10344242;28;20060;-78
2022/09/23 15:54:24;;;;;;;3.65;2.30;;;;;;;17.79;40.69;100250.91;10356146;28;20050;-77
2022/09/23 15:59:30;;;;;;;1.88;1.65;;;;;;;17.75;40.59;100253.16;10369212;28;20052;-79
2022/09/23 16:04:34;;;;;;;1.98;1.85;;;;;;;17.59;41.17;100262.19;10363561;28;20070;-80
2022/09/23 16:09:37;;;;;;;2.25;1.60;;;;;;;17.46;41.47;100251.00;10352533;28;20049;-79
2022/09/23 16:14:41;;;;;;;2.20;1.70;;;;;;;17.29;41.79;100247.47;10358953;28;20403;-78
2022/09/23 16:19:45;;;;;;;3.15;1.83;;;;;;;17.28;42.02;100244.91;10349583;28;20046;-78
2022/09/23 16:24:48;;;;;;;4.00;2.33;;;;;;;17.25;42.15;100246.97;10353658;28;20049;-79
2022/09/23 16:29:52;;;;;;;4.18;2.30;;;;;;;17.19;42.03;100246.78;10335114;28;20054;-78
2022/09/23 16:34:57;;;;;;;1.75;1.55;;;;;;;17.20;42.52;100240.34;10370502;28;20042;-79
2022/09/23 16:40:00;;;;;;;3.25;2.10;;;;;;;17.17;43.08;100238.00;10357559;28;20042;-78
2022/09/23 16:45:06;;;;;;;3.50;1.98;;;;;;;17.10;43.68;100234.22;10331127;28;20125;-78
2022/09/23 16:50:10;;;;;;;3.45;1.60;;;;;;;17.02;44.30;100240.50;10339512;28;20038;-79
2022/09/23 16:55:14;;;;;;;3.08;1.50;;;;;;;16.94;44.51;100240.50;10365946;28;20042;-80
2022/09/23 17:05:39;;;;;;;3.20;1.70;;;;;;;16.74;45.48;100231.84;10364046;28;20053;-79
2022/09/23 17:10:43;;;;;;;6.25;2.10;;;;;;;16.64;45.73;100247.41;10366438;28;20133;-78
2022/09/23 17:15:47;;;;;;;8.38;2.92;;;;;;;16.53;46.36;100241.28;10364411;28;20051;-78
2022/09/23 17:20:58;;;;;;;7.35;2.85;;;;;;;16.43;46.28;100245.16;10355354;28;20077;-78
2022/09/23 17:26:04;;;;;;;8.90;2.60;;;;;;;16.34;46.69;100242.44;10377421;28;20050;-79
2022/09/23 17:31:08;;;;;;;3.25;2.50;;;;;;;16.25;46.78;100237.97;10357924;28;20038;-79
2022/09/23 17:36:13;;;;;;;10.68;3.58;;;;;;;16.19;46.40;100244.06;10347855;28;20518;-78
2022/09/23 17:41:16;;;;;;;15.70;4.35;;;;;;;16.14;46.58;100241.00;10372796;28;20125;-79
2022/09/23 17:46:22;;;;;;;16.75;3.53;;;;;;;16.09;46.77;100233.34;10363998;28;20145;-80
2022/09/23 17:51:25;;;;;;;12.20;2.80;;;;;;;16.05;46.75;100234.72;10342059;28;20042;-79
2022/09/23 17:56:29;;;;;;;10.68;3.55;;;;;;;15.98;47.25;100232.81;10363920;28;20046;-80
2022/09/23 18:01:34;;;;;;;8.00;3.10;;;;;;;15.93;47.26;100236.00;10366418;28;20046;-79
2022/09/23 18:06:37;;;;;;;8.07;3.13;;;;;;;15.87;47.70;100231.25;10369490;28;20050;-79
2022/09/23 18:11:43;;;;;;;3.70;2.70;;;;;;;15.80;47.96;100233.75;10353990;28;20092;-77
2022/09/23 18:16:49;;;;;;;4.05;2.60;;;;;;;15.75;48.24;100233.41;10368620;28;20038;-80
2022/09/23 18:21:54;;;;;;;3.40;2.60;;;;;;;15.70;48.48;100228.44;10365238;28;20527;-80
2022/09/23 18:26:58;;;;;;;4.43;2.88;;;;;;;15.63;48.70;100227.41;10374640;28;20050;-78
2022/09/23 18:32:03;;;;;;;3.95;3.35;;;;;;;15.58;49.09;100229.75;10370595;28;20046;-78
2022/09/23 18:37:06;;;;;;;5.55;3.65;;;;;;;15.44;50.39;100233.03;10387616;28;20050;-78
2022/09/23 18:42:17;;;;;;;4.93;3.25;;;;;;;15.33;49.91;100233.28;10387330;28;20042;-78
2022/09/23 18:52:38;;;;;;;7.35;4.63;;;;;;;15.40;50.04;100227.09;10370828;28;20068;-79
2022/09/23 18:57:41;;;;;;;10.38;5.60;;;;;;;15.41;50.36;100225.22;10375928;28;20029;-77
2022/09/23 19:02:45;;;;;;;7.18;5.10;;;;;;;15.34;50.55;100227.75;10368632;28;20049;-76
2022/09/23 19:07:48;;;;;;;7.22;4.05;;;;;;;15.34;51.74;100226.88;10352730;28;20053;-79
2022/09/23 19:12:51;;;;;;;6.43;3.90;;;;;;;15.23;52.37;100225.28;10378073;28;20048;-78
2022/09/23 19:17:55;;;;;;;3.55;3.22;;;;;;;15.14;53.49;100224.38;10370808;28;20112;-79
2022/09/23 19:22:58;;;;;;;5.00;3.22;;;;;;;15.08;53.86;100216.88;10374365;28;20550;-78
2022/09/23 19:28:04;;;;;;;7.00;5.22;;;;;;;14.98;54.65;100216.13;10364851;28;20061;-78
2022/09/23 19:33:08;;;;;;;10.77;6.53;;;;;;;14.89;54.99;100227.88;10322841;28;20066;-76
2022/09/23 19:38:12;;;;;;;5.18;4.10;;;;;;;14.80;55.02;100216.97;10334853;28;20085;-80
2022/09/23 19:43:15;;;;;;;4.80;4.30;;;;;;;14.70;55.16;100218.94;10351803;28;20414;-78
2022/09/23 19:48:20;;;;;;;5.40;3.75;;;;;;;14.61;56.07;100219.84;10398511;28;20065;-76
2022/09/23 19:53:23;;;;;;;7.15;3.90;;;;;;;14.55;55.87;100218.63;10366178;28;20042;-78
2022/09/23 19:58:30;;;;;;;5.97;3.75;;;;;;;14.59;56.19;100221.88;10358295;28;20058;-78
2022/09/23 20:03:34;;;;;;;4.32;3.85;;;;;;;14.54;56.68;100218.78;10336267;28;20054;-78
2022/09/23 20:08:37;;;;;;;9.15;4.28;;;;;;;14.48;55.82;100219.38;10351551;28;20555;-78
2022/09/23 20:13:42;;;;;;;7.93;5.90;;;;;;;14.53;57.63;100214.38;10349671;28;20042;-79
2022/09/23 20:18:51;;;;;;;7.43;6.07;;;;;;;14.46;60.74;100207.91;10367486;28;20077;-77
2022/09/23 20:23:54;;;;;;;9.85;6.43;;;;;;;14.29;64.17;100205.00;10370978;28;20113;-78
2022/09/23 20:28:58;;;;;;;8.73;7.10;;;;;;;14.02;68.28;100196.94;10339320;28;20042;-78
2022/09/23 20:34:04;;;;;;;10.60;6.97;;;;;;;13.89;70.80;100194.56;10351480;28;20038;-78
2022/09/23 20:39:08;;;;;;;8.43;7.18;;;;;;;13.83;73.10;100195.19;10328256;28;20118;-78
2022/09/23 20:44:12;;;;;;;8.98;7.85;;;;;;;13.78;73.73;100192.94;10337885;28;20042;-79
2022/09/23 20:49:17;;;;;;;9.95;7.60;;;;;;;13.76;74.65;100197.63;10345835;28;20042;-78
2022/09/23 20:54:22;;;;;;;8.43;7.35;;;;;;;13.73;74.71;100189.81;10383037;28;20045;-75
2022/09/23 20:59:26;;;;;;;10.02;7.50;;;;;;;13.61;73.38;100188.34;10377762;28;20057;-76
2022/09/23 21:04:30;;;;;;;10.88;7.07;;;;;;;13.59;73.99;100188.47;10365469;28;20121;-78
2022/09/23 21:09:33;;;;;;;9.15;7.97;;;;;;;13.26;70.43;100201.47;10355561;28;20062;-78
2022/09/23 21:14:36;;;;;;;8.57;7.20;;;;;;;12.88;71.47;100204.25;10373796;28;20072;-77
2022/09/23 21:19:40;;;;;;;9.18;7.10;;;;;;;12.95;73.40;100197.28;10356439;28;20042;-79
2022/09/23 21:24:43;;;;;;;11.75;8.23;;;;;;;12.90;73.26;100196.88;10345865;28;20046;-79
2022/09/23 21:30:07;;;;;;;8.77;6.07;;;;;;;12.84;71.38;100201.00;10340951;28;20446;-78
2022/09/23 21:35:11;;;;;;;13.15;8.30;;;;;;;12.93;71.89;100199.28;10348045;28;20038;-79
2022/09/23 21:45:35;;;;;;;13.85;8.63;;;;;;;13.27;70.74;100189.69;10359076;28;20499;-79
2022/09/23 21:50:39;;;;;;;10.85;8.80;;;;;;;13.32;66.94;100201.88;10364261;28;20152;-79
2022/09/23 21:55:42;;;;;;;12.82;8.68;;;;;;;13.31;64.74;100198.34;10342904;28;20068;-79
2022/09/23 22:00:45;;;;;;;12.52;8.90;;;;;;;13.40;64.38;100199.34;10346519;28;20051;-78
2022/09/23 22:06:00;;;;;;;12.30;9.20;;;;;;;13.33;64.73;100200.88;10359842;28;20103;-78
2022/09/23 22:11:05;;;;;;;11.18;7.90;;;;;;;13.31;64.09;100197.50;10373289;28;20059;-78
2022/09/23 22:16:09;;;;;;;11.13;8.38;;;;;;;13.32;63.88;100199.19;10356399;28;20045;-78
2022/09/23 22:21:13;;;;;;;12.43;8.20;;;;;;;13.37;63.22;100189.69;10338049;28;20169;-78
2022/09/23 22:26:16;;;;;;;10.05;7.82;;;;;;;13.47;62.44;100198.59;10374996;28;20054;-78
2022/09/23 22:36:41;;;;;;;13.27;9.00;;;;;;;13.64;62.57;100182.63;10362652;28;20522;-78
2022/09/23 22:41:44;;;;;;;15.35;8.68;;;;;;;13.66;62.62;100184.19;10369124;28;20062;-79
2022/09/23 22:46:48;;;;;;;13.18;8.80;;;;;;;13.61;61.92;100181.06;10362480;28;20101;-78
2022/09/23 22:51:52;;;;;;;11.07;8.02;;;;;;;13.60;61.96;100184.78;10366167;28;20049;-77
2022/09/23 22:56:55;;;;;;;13.00;8.80;;;;;;;13.69;62.21;100177.63;10360847;28;20121;-78
2022/09/23 23:02:01;;;;;;;9.88;8.05;;;;;;;13.66;62.86;100169.84;10344459;28;20050;-77
2022/09/23 23:07:05;;;;;;;14.10;7.95;;;;;;;13.66;63.74;100164.44;10347807;28;20416;-77
2022/09/23 23:12:08;;;;;;;14.68;8.63;;;;;;;13.61;63.40;100148.69;10361218;28;20038;-77
2022/09/23 23:17:11;;;;;;;11.88;8.27;;;;;;;13.63;62.71;100154.78;10376896;28;20054;-77
2022/09/23 23:22:15;;;;;;;9.25;8.30;;;;;;;13.65;63.14;100154.63;10348523;28;20054;-77
2022/09/23 23:27:18;;;;;;;11.25;8.20;;;;;;;13.64;63.40;100153.78;10357586;28;20125;-77
2022/09/23 23:32:21;;;;;;;9.93;7.85;;;;;;;13.60;63.65;100143.44;10332923;28;20046;-78
2022/09/23 23:37:25;;;;;;;10.93;8.05;;;;;;;13.50;64.35;100140.78;10374638;28;20116;-77
2022/09/23 23:42:28;;;;;;;11.02;8.48;;;;;;;13.38;64.98;100142.81;10380957;28;20042;-77
2022/09/23 23:47:31;;;;;;;10.27;8.02;;;;;;;13.27;65.42;100143.84;10327715;28;20499;-77
2022/09/23 23:52:35;;;;;;;13.63;8.40;;;;;;;13.25;65.89;100140.44;10330444;28;20049;-78
2022/09/23 23:57:38;;;;;;;11.82;9.57;;;;;;;13.17;65.97;100139.47;10358633;28;20050;-78
